AirNav   Air Wisconsin Up To $57,000 Bonus
 
 1482 users online  

67MU Air Cover Airport
Frankford, Missouri, USA


FAA INFORMATION EFFECTIVE 03 NOVEMBER 2022

Location

FAA Identifier: 67MU
Lat/Long: 39-27-15.0100N 091-23-45.3100W
39-27.250167N 091-23.755167W
39.4541694,-91.3959194
(estimated)
Elevation: 744 ft. / 227 m (estimated)
From city: 4 miles SW of FRANKFORD, MO
Time zone: UTC -6 (UTC -5 during Daylight Saving Time)
Zip code: 63441

Airport Operations

Airport use: Private use. Permission required prior to landing
Activation date: 12/2021
Control tower: no
ARTCC: KANSAS CITY CENTER
FSS: COLUMBIA FLIGHT SERVICE STATION
Attendance: 
Segmented circle: no

Airport Communications

WX AWOS-3PT at HAE (16 nm N): 120.775 (573-221-2584)

Nearby radio navigation aids

VOR radial/distance  VOR name  Freq  Var
UINr188/24.2QUINCY VORTAC113.6005E
HLVr053/39.7HALLSVILLE VORTAC114.2006E

Airport Services

Runway Information

Runway 10/28

Dimensions: 2710 x 100 ft. / 826 x 30 m
Surface: turf
RUNWAY 10  RUNWAY 28
Latitude: 39-27.270667N39-27.229500N
Longitude: 091-24.042000W091-23.468333W
Elevation: 742.0 ft.744.0 ft.
Traffic pattern: leftleft

Airport Ownership and Management from official FAA records

Ownership: Privately-owned
Owner: JAKE MCDONALD
9548 PIKE 12
FRANKFORD, MO 63441
Phone 830-423-2169
IAMJAKEMCDONALD@GMAIL.COM
Manager: JAKE MCDONALD
9548 PIKE 12
FRANKFORD, MO 63441
Phone 830-423-2169

Airport Operational Statistics

Aircraft based on the field: 1
Single engine airplanes: 1
    

Instrument Procedures

There are no published instrument procedures at 67MU.

Some nearby airports with instrument procedures:

H19 - Bowling Green Municipal Airport (10 nm SE)
KHAE - Hannibal Regional Airport (16 nm N)
K52 - Cpt Ben Smith Airfield - Monroe City (19 nm NW)
KMYJ - Mexico Memorial Airport (26 nm SW)
KPPQ - Pittsfield Penstone Municipal Airport (31 nm E)
 
Loc | Ops | Rwys | IFR | FBO | Links
Com | Nav | Svcs | Stats | Notes
Aerial photo
No photo
 
Airport distance calculator
Flying to Air Cover Airport? Find the distance to fly.

From to 67MU

Sunrise and sunset
Times for 29-Nov-2022
 Local
(UTC-6)
 Zulu
(UTC)
Morning civil twilight06:3612:36
Sunrise07:0613:06
Sunset16:4222:42
Evening civil twilight17:1223:12

Current date and time
Zulu (UTC)  29-Nov-2022 17:35:57
Local (UTC-6)  29-Nov-2022 11:35:57
 
METAR
KHAE 
16nm N 
291715Z AUTO 19012G22KT 10SM BKN030 BKN038 16/09 A2951 RMK AO2
KMYJ 
26nm SW 
291715Z AUTO 19019G26KT 10SM SCT035 BKN040 17/11 A2951 RMK AO2 LTG DSNT SE
KPPQ 
30nm E 
291715Z AUTO 17012G17KT 10SM OVC031 14/10 A2956 RMK AO2 LTG DSNT S T01440098
KUIN 
31nm N 
291723Z AUTO 18014G25KT 10SM SCT029 BKN036 14/09 A2949 RMK AO2 PK WND 19031/1705 T01440094
TAF
KUIN 
31nm N 
291120Z 2912/3012 15012G22KT P6SM BKN250 FM291500 17016G32KT P6SM BKN250 FM292000 21017G31KT P6SM BKN050 FM300000 29017G28KT P6SM BKN025 FM300500 30018G29KT P6SM SCT030
NOTAMs
Click for the latest NOTAMs
NOTAMs are issued by the DoD/FAA and will open in a separate window not controlled by AirNav.

 

 
 

Would you like to see your business listed on this page?

 If your business provides an interesting product or service to pilots, flight crews, aircraft, or users of the Air Cover Airport, you should consider listing it here.  To start the listing process, click on the button below
 
Add a business
 

Other Pages about Air Cover Airport

Update a link
 
Copyright © AirNav, LLC. All rights reserved. Privacy Policy  Contact